createdAt,value
2017-06-14T00:01:10.771Z,15.00
2017-06-14T00:03:38.851Z,14.90
2017-06-14T00:06:06.932Z,14.90
2017-06-14T00:08:35.015Z,15.00
2017-06-14T00:11:03.099Z,14.90
2017-06-14T00:13:31.196Z,14.60
2017-06-14T00:15:59.284Z,14.60
2017-06-14T00:18:27.374Z,14.30
2017-06-14T00:20:55.467Z,14.40
2017-06-14T00:23:23.771Z,14.60
2017-06-14T00:25:51.867Z,14.80
2017-06-14T00:28:19.967Z,14.80
2017-06-14T00:30:48.042Z,14.90
2017-06-14T00:33:16.119Z,14.80
2017-06-14T00:35:45.010Z,14.80
2017-06-14T00:38:13.100Z,14.70
2017-06-14T00:40:41.185Z,14.70
2017-06-14T00:43:09.315Z,14.40
2017-06-14T00:45:37.412Z,14.40
2017-06-14T00:48:05.503Z,14.10
2017-06-14T00:50:33.587Z,14.30
2017-06-14T00:53:01.659Z,14.40
2017-06-14T00:55:29.751Z,14.20
2017-06-14T00:57:57.849Z,14.20
2017-06-14T01:00:25.924Z,14.40
2017-06-14T01:02:53.997Z,14.40
2017-06-14T01:05:22.118Z,14.50
2017-06-14T01:07:50.190Z,14.30
2017-06-14T01:10:18.254Z,14.10
2017-06-14T01:12:46.332Z,13.70
2017-06-14T01:15:14.420Z,14.00
2017-06-14T01:17:42.502Z,14.00
2017-06-14T01:20:10.584Z,13.90
2017-06-14T01:22:38.665Z,13.70
2017-06-14T01:25:06.733Z,13.90
2017-06-14T01:27:34.804Z,14.00
2017-06-14T01:30:02.889Z,14.20
2017-06-14T01:32:30.965Z,14.20
2017-06-14T01:34:59.057Z,14.20
2017-06-14T01:37:27.130Z,14.20
2017-06-14T01:39:55.208Z,14.00
2017-06-14T01:42:23.291Z,13.60
2017-06-14T01:44:51.393Z,13.70
2017-06-14T01:47:19.472Z,13.80
2017-06-14T01:49:47.545Z,13.70
2017-06-14T01:52:15.624Z,13.70
2017-06-14T01:54:43.693Z,13.40
2017-06-14T01:57:11.776Z,13.70
2017-06-14T01:59:40.633Z,13.90
2017-06-14T02:02:08.726Z,13.90
2017-06-14T02:04:36.797Z,13.60
2017-06-14T02:07:04.896Z,13.70
2017-06-14T02:09:32.978Z,13.90
2017-06-14T02:12:01.058Z,13.70
2017-06-14T02:14:29.163Z,13.70
2017-06-14T02:16:57.229Z,13.70
2017-06-14T02:19:25.310Z,13.70
2017-06-14T02:21:53.380Z,13.70
2017-06-14T02:24:21.501Z,13.40
2017-06-14T02:26:49.573Z,13.20
2017-06-14T02:29:17.652Z,12.90
2017-06-14T02:31:45.726Z,13.00
2017-06-14T02:34:13.787Z,12.90
2017-06-14T02:36:42.121Z,12.70
2017-06-14T02:39:10.404Z,12.70
2017-06-14T02:41:38.561Z,12.40
2017-06-14T02:44:06.746Z,12.60
2017-06-14T02:46:35.021Z,12.90
2017-06-14T02:49:03.168Z,12.70
2017-06-14T02:51:31.265Z,12.60
2017-06-14T02:53:59.345Z,12.90
2017-06-14T02:56:27.441Z,13.10
2017-06-14T02:58:55.519Z,13.20
2017-06-14T03:01:23.590Z,12.50
2017-06-14T03:03:51.670Z,12.50
2017-06-14T03:06:19.741Z,12.50
2017-06-14T03:08:47.838Z,12.90
2017-06-14T03:11:15.907Z,12.90
2017-06-14T03:13:44.002Z,12.90
2017-06-14T03:16:12.073Z,13.10
2017-06-14T03:18:40.157Z,13.00
2017-06-14T03:21:08.225Z,13.00
2017-06-14T03:23:36.304Z,12.70
2017-06-14T03:26:04.377Z,13.00
2017-06-14T03:28:32.466Z,13.10
2017-06-14T03:31:00.541Z,13.20
2017-06-14T03:33:28.612Z,13.10
2017-06-14T03:35:56.705Z,13.00
2017-06-14T03:38:24.778Z,12.90
2017-06-14T03:40:52.868Z,12.80
2017-06-14T03:43:20.980Z,12.80
2017-06-14T03:45:49.069Z,12.60
2017-06-14T03:48:17.146Z,12.00
2017-06-14T03:50:45.241Z,12.00
2017-06-14T03:53:13.333Z,12.20
2017-06-14T03:55:41.401Z,12.50
2017-06-14T03:58:09.492Z,12.40
2017-06-14T04:00:37.558Z,12.50
2017-06-14T04:03:05.633Z,12.70
2017-06-14T04:05:33.704Z,12.80
2017-06-14T04:08:01.778Z,12.90
2017-06-14T04:10:29.855Z,12.40
2017-06-14T04:12:57.947Z,12.20
2017-06-14T04:15:26.029Z,12.40
2017-06-14T04:17:54.096Z,12.70
2017-06-14T04:20:22.188Z,13.00
2017-06-14T04:22:50.261Z,13.40
2017-06-14T04:25:18.344Z,13.60
2017-06-14T04:27:46.408Z,13.80
2017-06-14T04:30:14.479Z,13.90
2017-06-14T04:32:42.557Z,14.00
2017-06-14T04:35:10.652Z,14.20
2017-06-14T04:37:38.732Z,14.30
2017-06-14T04:40:06.802Z,14.50
2017-06-14T04:42:34.884Z,14.60
2017-06-14T04:45:02.963Z,14.80
2017-06-14T04:47:31.041Z,15.00
2017-06-14T04:49:59.109Z,15.10
2017-06-14T04:52:27.196Z,15.10
2017-06-14T04:54:55.276Z,15.20
2017-06-14T04:57:23.352Z,15.30
2017-06-14T04:59:51.449Z,15.40
2017-06-14T05:02:19.546Z,15.50
2017-06-14T05:04:47.702Z,15.50
2017-06-14T05:07:15.769Z,15.60
2017-06-14T05:09:43.848Z,15.80
2017-06-14T05:12:11.918Z,15.80
2017-06-14T05:14:39.993Z,16.00
2017-06-14T05:17:08.075Z,16.10
2017-06-14T05:19:36.141Z,16.30
2017-06-14T05:22:04.213Z,16.30
2017-06-14T05:24:32.281Z,16.10
2017-06-14T05:27:00.364Z,16.50
2017-06-14T05:29:28.449Z,16.70
2017-06-14T05:31:56.533Z,17.10
2017-06-14T05:34:24.793Z,17.40
2017-06-14T05:36:53.063Z,17.60
2017-06-14T05:39:21.136Z,17.70
2017-06-14T05:41:49.211Z,18.00
2017-06-14T05:44:17.288Z,18.20
2017-06-14T05:46:45.362Z,18.50
2017-06-14T05:49:13.664Z,18.70
2017-06-14T05:51:41.737Z,18.70
2017-06-14T05:54:09.808Z,18.80
2017-06-14T05:56:37.908Z,18.60
2017-06-14T05:59:05.965Z,18.70
2017-06-14T06:01:34.063Z,18.80
2017-06-14T06:04:02.253Z,18.80
2017-06-14T06:06:30.353Z,18.80
2017-06-14T06:08:58.435Z,19.00
2017-06-14T06:11:26.531Z,19.00
2017-06-14T06:13:54.624Z,18.90
2017-06-14T06:16:22.708Z,19.10
2017-06-14T06:18:50.796Z,19.30
2017-06-14T06:21:18.883Z,19.40
2017-06-14T06:23:46.977Z,19.40
2017-06-14T06:26:15.063Z,19.50
2017-06-14T06:28:43.148Z,19.60
2017-06-14T06:31:11.247Z,19.50
2017-06-14T06:33:39.341Z,19.60
2017-06-14T06:36:07.423Z,19.90
2017-06-14T06:38:35.522Z,20.20
2017-06-14T06:41:03.613Z,20.00
2017-06-14T06:43:31.701Z,20.30
2017-06-14T06:45:59.795Z,20.50
2017-06-14T06:48:27.883Z,20.80
2017-06-14T06:50:55.975Z,20.90
2017-06-14T06:53:24.066Z,20.80
2017-06-14T06:55:52.155Z,20.60
2017-06-14T06:58:20.251Z,20.90
2017-06-14T07:00:48.357Z,21.10
2017-06-14T07:03:16.452Z,21.30
2017-06-14T07:05:44.543Z,21.20
2017-06-14T07:08:12.639Z,21.60
2017-06-14T07:10:40.728Z,21.70
2017-06-14T07:13:08.824Z,22.00
2017-06-14T07:15:36.915Z,21.90
2017-06-14T07:18:05.007Z,22.30
2017-06-14T07:20:33.105Z,21.90
2017-06-14T07:23:01.188Z,22.20
2017-06-14T07:25:29.273Z,21.90
2017-06-14T07:27:57.353Z,22.00
2017-06-14T07:30:25.445Z,22.30
2017-06-14T07:32:53.533Z,22.40
2017-06-14T07:35:21.639Z,22.10
2017-06-14T07:37:49.725Z,22.10
2017-06-14T07:40:18.688Z,22.30
2017-06-14T07:42:46.761Z,22.30
2017-06-14T07:45:14.856Z,22.30
2017-06-14T07:47:42.939Z,22.40
2017-06-14T07:50:11.030Z,21.20
2017-06-14T07:52:39.119Z,22.20
2017-06-14T07:55:07.209Z,22.70
2017-06-14T07:57:35.299Z,23.00
2017-06-14T08:00:03.386Z,23.10
2017-06-14T08:02:31.465Z,23.20
2017-06-14T08:04:59.548Z,23.10
2017-06-14T08:07:27.663Z,23.60
2017-06-14T08:09:55.751Z,23.80
2017-06-14T08:12:23.833Z,23.90
2017-06-14T08:14:51.923Z,24.00
2017-06-14T08:17:20.003Z,24.40
2017-06-14T08:19:48.090Z,24.60
2017-06-14T08:22:16.164Z,24.00
2017-06-14T08:24:44.263Z,24.00
2017-06-14T08:27:12.355Z,24.30
2017-06-14T08:29:40.443Z,24.60
2017-06-14T08:32:08.532Z,24.80
2017-06-14T08:34:36.615Z,24.90
2017-06-14T08:37:04.696Z,24.90
2017-06-14T08:39:32.779Z,25.10
2017-06-14T08:42:00.867Z,25.40
2017-06-14T08:44:28.944Z,25.40
2017-06-14T08:46:57.043Z,25.50
2017-06-14T08:49:25.127Z,25.50
2017-06-14T08:51:53.212Z,25.50
2017-06-14T08:54:21.292Z,26.00
2017-06-14T08:56:49.378Z,26.20
2017-06-14T08:59:17.451Z,26.10
2017-06-14T09:01:45.535Z,25.50
2017-06-14T09:04:13.611Z,26.10
2017-06-14T09:06:41.701Z,26.10
2017-06-14T09:09:09.776Z,26.60
2017-06-14T09:11:37.859Z,26.30
2017-06-14T09:14:05.937Z,26.70
2017-06-14T09:16:34.024Z,26.80
2017-06-14T09:19:02.112Z,26.60
2017-06-14T09:21:30.189Z,26.70
2017-06-14T09:23:58.271Z,26.80
2017-06-14T09:26:26.351Z,27.10
2017-06-14T09:28:54.441Z,27.30
2017-06-14T09:31:22.521Z,27.30
2017-06-14T09:33:50.612Z,27.60
2017-06-14T09:36:18.697Z,27.60
2017-06-14T09:38:46.779Z,23.80
2017-06-14T09:41:14.855Z,25.60
2017-06-14T09:43:42.937Z,26.10
2017-06-14T09:46:11.034Z,25.60
2017-06-14T09:48:39.111Z,24.10
2017-06-14T09:51:07.196Z,25.20
2017-06-14T09:53:35.283Z,26.10
2017-06-14T09:56:03.400Z,26.50
2017-06-14T09:58:31.779Z,27.00
2017-06-14T10:00:59.925Z,27.60
2017-06-14T10:03:28.114Z,28.00
2017-06-14T10:05:56.196Z,28.10
2017-06-14T10:08:24.280Z,28.30
2017-06-14T10:10:52.371Z,28.00
2017-06-14T10:13:20.461Z,27.20
2017-06-14T10:15:48.555Z,26.10
2017-06-14T10:18:16.651Z,26.00
2017-06-14T10:20:44.727Z,27.10
2017-06-14T10:23:12.811Z,27.90
2017-06-14T10:25:40.896Z,28.40
2017-06-14T10:28:08.974Z,28.00
2017-06-14T10:30:37.067Z,27.40
2017-06-14T10:33:05.152Z,25.70
2017-06-14T10:35:33.227Z,27.00
2017-06-14T10:38:01.320Z,27.90
2017-06-14T10:40:29.418Z,28.50
2017-06-14T10:42:57.495Z,29.10
2017-06-14T10:45:25.584Z,29.20
2017-06-14T10:47:53.664Z,29.00
2017-06-14T10:50:21.751Z,29.10
2017-06-14T10:52:49.841Z,29.00
2017-06-14T10:55:17.916Z,29.30
2017-06-14T10:57:46.007Z,29.50
2017-06-14T11:00:14.084Z,29.40
2017-06-14T11:02:42.179Z,29.50
2017-06-14T11:05:10.263Z,28.90
2017-06-14T11:07:38.350Z,28.90
2017-06-14T11:10:06.435Z,27.20
2017-06-14T11:12:34.512Z,28.00
2017-06-14T11:15:02.597Z,28.10
2017-06-14T11:17:30.691Z,28.70
2017-06-14T11:19:58.779Z,29.10
2017-06-14T11:22:26.864Z,29.10
2017-06-14T11:24:54.966Z,29.20
2017-06-14T11:27:23.035Z,29.40
2017-06-14T11:29:51.126Z,29.60
2017-06-14T11:32:19.221Z,28.80
2017-06-14T11:34:47.304Z,28.20
2017-06-14T11:37:15.383Z,28.30
2017-06-14T11:39:43.463Z,29.00
2017-06-14T11:42:11.553Z,29.00
2017-06-14T11:44:39.623Z,29.50
2017-06-14T11:47:07.715Z,28.80
2017-06-14T11:49:35.815Z,29.40
2017-06-14T11:52:07.687Z,29.20
2017-06-14T11:54:35.766Z,29.60
2017-06-14T11:57:03.857Z,29.50
2017-06-14T11:59:31.939Z,29.60
2017-06-14T12:02:00.028Z,29.80
2017-06-14T12:04:28.109Z,30.00
2017-06-14T12:06:56.184Z,29.90
2017-06-14T12:09:24.277Z,29.60
2017-06-14T12:11:52.382Z,29.80
2017-06-14T12:14:20.451Z,30.10
2017-06-14T12:16:48.532Z,30.50
2017-06-14T12:19:16.623Z,30.30
2017-06-14T12:21:44.719Z,30.10
2017-06-14T12:24:12.799Z,28.90
2017-06-14T12:26:40.901Z,29.10
2017-06-14T12:29:08.979Z,30.10
2017-06-14T12:31:37.060Z,30.70
2017-06-14T12:34:05.139Z,30.40
2017-06-14T12:36:33.237Z,30.70
2017-06-14T12:39:01.317Z,30.80
2017-06-14T12:41:29.391Z,30.60
2017-06-14T12:43:57.498Z,30.60
2017-06-14T12:46:25.665Z,30.20
2017-06-14T12:48:53.747Z,30.40
2017-06-14T12:51:21.827Z,30.20
2017-06-14T12:53:49.907Z,29.90
2017-06-14T12:56:17.996Z,30.10
2017-06-14T12:58:46.079Z,30.30
2017-06-14T13:01:14.169Z,30.30
2017-06-14T13:03:42.244Z,30.00
2017-06-14T13:06:10.327Z,30.20
2017-06-14T13:08:38.407Z,30.20
2017-06-14T13:11:06.495Z,30.30
2017-06-14T13:13:34.567Z,30.20
2017-06-14T13:16:02.668Z,27.70
2017-06-14T13:18:30.764Z,27.80
2017-06-14T13:20:58.839Z,28.40
2017-06-14T13:23:26.938Z,29.40
2017-06-14T13:25:55.045Z,28.60
2017-06-14T13:28:23.113Z,29.10
2017-06-14T13:30:51.180Z,29.60
2017-06-14T13:33:19.260Z,29.30
2017-06-14T13:35:47.331Z,29.00
2017-06-14T13:38:15.432Z,29.50
2017-06-14T13:40:43.513Z,29.50
2017-06-14T13:43:11.596Z,29.50
2017-06-14T13:45:39.675Z,29.60
2017-06-14T13:48:07.768Z,28.70
2017-06-14T13:50:35.858Z,28.40
2017-06-14T13:53:03.944Z,27.50
2017-06-14T13:55:32.052Z,27.60
2017-06-14T13:58:00.137Z,27.20
2017-06-14T14:00:28.223Z,27.80
2017-06-14T14:02:56.318Z,27.90
2017-06-14T14:05:24.411Z,28.00
2017-06-14T14:07:52.492Z,28.00
2017-06-14T14:10:20.563Z,28.00
2017-06-14T14:12:48.656Z,28.00
2017-06-14T14:15:16.727Z,27.90
2017-06-14T14:17:44.813Z,27.80
2017-06-14T14:20:12.889Z,27.80
2017-06-14T14:22:40.980Z,27.80
2017-06-14T14:25:09.064Z,27.60
2017-06-14T14:27:37.167Z,27.70
2017-06-14T14:30:05.266Z,27.40
2017-06-14T14:32:33.340Z,25.30
2017-06-14T14:35:01.419Z,26.10
2017-06-14T14:37:29.497Z,26.60
2017-06-14T14:39:57.679Z,26.80
2017-06-14T14:42:25.767Z,26.80
2017-06-14T14:44:53.844Z,26.70
2017-06-14T14:47:21.925Z,26.40
2017-06-14T14:49:50.028Z,26.50
2017-06-14T14:52:18.116Z,26.70
2017-06-14T14:54:46.242Z,26.60
2017-06-14T14:57:14.325Z,26.60
2017-06-14T14:59:42.430Z,26.60
2017-06-14T15:02:10.524Z,26.50
2017-06-14T15:04:38.593Z,26.40
2017-06-14T15:07:06.686Z,26.40
2017-06-14T15:09:34.767Z,26.50
2017-06-14T15:12:02.866Z,26.40
2017-06-14T15:14:30.936Z,26.40
2017-06-14T15:16:59.023Z,26.40
2017-06-14T15:19:27.114Z,26.20
2017-06-14T15:21:55.178Z,25.80
2017-06-14T15:24:23.265Z,25.70
2017-06-14T15:26:51.345Z,25.90
2017-06-14T15:29:19.431Z,26.00
2017-06-14T15:31:47.509Z,25.90
2017-06-14T15:34:15.592Z,25.50
2017-06-14T15:36:43.673Z,25.40
2017-06-14T15:39:11.768Z,25.60
2017-06-14T15:41:39.844Z,25.50
2017-06-14T15:44:07.928Z,25.20
2017-06-14T15:46:36.026Z,24.90
2017-06-14T15:49:04.101Z,25.10
2017-06-14T15:51:32.183Z,25.30
2017-06-14T15:54:00.256Z,25.40
2017-06-14T15:56:28.349Z,25.40
2017-06-14T15:58:56.425Z,25.30
2017-06-14T16:01:24.504Z,25.50
2017-06-14T16:03:52.596Z,25.50
2017-06-14T16:06:20.675Z,25.40
2017-06-14T16:08:48.760Z,25.40
2017-06-14T16:11:16.839Z,25.40
2017-06-14T16:13:44.927Z,25.30
2017-06-14T16:16:12.999Z,25.20
2017-06-14T16:18:41.113Z,25.20
2017-06-14T16:21:10.324Z,25.20
2017-06-14T16:23:38.411Z,25.20
2017-06-14T16:26:06.490Z,25.00
2017-06-14T16:28:34.586Z,25.10
2017-06-14T16:31:02.667Z,25.00
2017-06-14T16:33:30.753Z,25.10
2017-06-14T16:35:58.840Z,25.00
2017-06-14T16:38:26.979Z,25.00
2017-06-14T16:40:55.075Z,25.00
2017-06-14T16:43:23.163Z,24.90
2017-06-14T16:45:51.244Z,25.10
2017-06-14T16:48:19.348Z,25.10
2017-06-14T16:50:47.424Z,25.10
2017-06-14T16:53:15.514Z,25.00
2017-06-14T16:55:43.595Z,25.00
2017-06-14T16:58:11.695Z,25.00
2017-06-14T17:00:39.804Z,25.00
2017-06-14T17:03:07.883Z,24.90
2017-06-14T17:05:35.967Z,24.90
2017-06-14T17:08:04.069Z,24.90
2017-06-14T17:10:32.163Z,24.90
2017-06-14T17:13:00.248Z,24.80
2017-06-14T17:15:28.330Z,24.80
2017-06-14T17:17:56.409Z,24.70
2017-06-14T17:20:24.480Z,24.70
2017-06-14T17:22:52.563Z,24.70
2017-06-14T17:25:20.652Z,24.70
2017-06-14T17:27:48.728Z,24.80
2017-06-14T17:30:16.827Z,24.70
2017-06-14T17:32:44.911Z,24.60
2017-06-14T17:35:12.990Z,24.60
2017-06-14T17:37:42.100Z,24.40
2017-06-14T17:40:10.254Z,24.40
2017-06-14T17:42:38.356Z,24.20
2017-06-14T17:45:06.436Z,24.20
2017-06-14T17:47:34.534Z,24.00
2017-06-14T17:50:02.608Z,24.00
2017-06-14T17:52:30.712Z,23.90
2017-06-14T17:54:59.569Z,23.90
2017-06-14T17:57:27.649Z,23.90
2017-06-14T17:59:55.767Z,23.90
2017-06-14T18:02:23.851Z,23.90
2017-06-14T18:04:51.937Z,23.90
2017-06-14T18:07:20.023Z,23.80
2017-06-14T18:09:48.116Z,23.80
2017-06-14T18:12:16.203Z,23.70
2017-06-14T18:14:44.308Z,23.80
2017-06-14T18:17:12.388Z,23.60
2017-06-14T18:19:40.471Z,23.50
2017-06-14T18:22:08.777Z,23.60
2017-06-14T18:24:36.848Z,23.70
2017-06-14T18:30:01.809Z,23.50
2017-06-14T18:32:29.901Z,23.60
2017-06-14T18:34:57.987Z,23.50
2017-06-14T18:37:26.071Z,23.50
2017-06-14T18:39:54.168Z,23.60
2017-06-14T18:42:22.309Z,23.60
2017-06-14T18:44:50.393Z,23.50
2017-06-14T18:47:18.473Z,23.40
2017-06-14T18:49:46.554Z,23.30
2017-06-14T18:52:14.635Z,23.30
2017-06-14T18:54:43.048Z,23.20
2017-06-14T18:57:11.162Z,23.10
2017-06-14T18:59:39.257Z,23.10
2017-06-14T19:02:07.332Z,23.10
2017-06-14T19:04:35.427Z,23.00
2017-06-14T19:07:04.172Z,22.90
2017-06-14T19:09:32.255Z,22.70
2017-06-14T19:12:00.340Z,22.40
2017-06-14T19:14:28.428Z,22.20
2017-06-14T19:16:56.507Z,21.90
2017-06-14T19:19:24.579Z,21.70
2017-06-14T19:21:52.687Z,21.30
2017-06-14T19:24:20.755Z,21.20
2017-06-14T19:26:54.500Z,21.30
2017-06-14T19:29:22.579Z,21.40
2017-06-14T19:31:50.665Z,21.40
2017-06-14T19:34:18.795Z,21.20
2017-06-14T19:36:46.892Z,21.20
2017-06-14T19:39:14.969Z,21.10
2017-06-14T19:41:43.079Z,21.00
2017-06-14T19:44:11.168Z,21.00
2017-06-14T19:46:39.267Z,20.90
2017-06-14T19:49:07.347Z,20.90
2017-06-14T19:51:35.440Z,20.80
2017-06-14T19:54:03.536Z,20.70
2017-06-14T19:56:31.607Z,20.60
2017-06-14T19:58:59.699Z,20.60
2017-06-14T20:01:27.797Z,20.60
2017-06-14T20:03:55.883Z,20.50
2017-06-14T20:06:23.964Z,20.40
2017-06-14T20:08:52.047Z,20.20
2017-06-14T20:11:20.151Z,20.00
2017-06-14T20:13:48.236Z,20.10
2017-06-14T20:16:16.317Z,20.10
2017-06-14T20:18:44.467Z,19.90
2017-06-14T20:21:12.538Z,19.70
2017-06-14T20:23:40.676Z,19.70
2017-06-14T20:26:08.751Z,19.70
2017-06-14T20:28:36.843Z,19.70
2017-06-14T20:31:04.935Z,19.80
2017-06-14T20:33:33.108Z,19.80
2017-06-14T20:36:01.204Z,19.60
2017-06-14T20:38:29.319Z,19.30
2017-06-14T20:40:57.395Z,19.50
2017-06-14T20:43:25.487Z,19.50
2017-06-14T20:45:53.565Z,19.50
2017-06-14T20:48:21.657Z,19.60
2017-06-14T20:50:49.748Z,19.60
2017-06-14T20:53:18.631Z,19.70
2017-06-14T20:55:46.717Z,19.70
2017-06-14T20:58:14.814Z,19.70
2017-06-14T21:00:42.901Z,19.60
2017-06-14T21:03:10.989Z,19.50
2017-06-14T21:05:39.055Z,19.40
2017-06-14T21:08:07.140Z,19.40
2017-06-14T21:10:35.227Z,19.40
2017-06-14T21:13:03.303Z,19.40
2017-06-14T21:15:31.392Z,19.20
2017-06-14T21:17:59.472Z,19.20
2017-06-14T21:20:27.551Z,19.10
2017-06-14T21:22:55.740Z,19.10
2017-06-14T21:25:23.824Z,19.20
2017-06-14T21:27:51.906Z,19.10
2017-06-14T21:30:19.976Z,19.00
2017-06-14T21:32:48.057Z,19.10
2017-06-14T21:35:16.137Z,19.00
2017-06-14T21:37:44.223Z,18.90
2017-06-14T21:40:12.308Z,19.10
2017-06-14T21:42:40.391Z,19.00
2017-06-14T21:45:08.471Z,18.90
2017-06-14T21:47:36.556Z,18.90
2017-06-14T21:50:04.634Z,18.90
2017-06-14T21:52:32.721Z,18.80
2017-06-14T21:55:00.847Z,18.50
2017-06-14T21:57:28.933Z,18.40
2017-06-14T21:59:57.015Z,18.20
2017-06-14T22:02:25.087Z,18.30
2017-06-14T22:04:53.196Z,18.40
2017-06-14T22:07:21.267Z,18.40
2017-06-14T22:09:49.358Z,18.30
2017-06-14T22:12:17.447Z,18.10
2017-06-14T22:14:45.537Z,18.20
2017-06-14T22:17:13.622Z,18.10
2017-06-14T22:19:41.700Z,18.10
2017-06-14T22:22:09.786Z,18.20
2017-06-14T22:24:37.863Z,18.10
2017-06-14T22:27:05.940Z,18.20
2017-06-14T22:29:34.028Z,18.20
2017-06-14T22:32:02.132Z,18.20
2017-06-14T22:34:30.213Z,18.30
2017-06-14T22:36:58.299Z,18.30
2017-06-14T22:39:26.427Z,18.20
2017-06-14T22:41:54.899Z,18.20
2017-06-14T22:44:23.202Z,18.10
2017-06-14T22:46:51.271Z,18.00
2017-06-14T22:49:19.358Z,17.90
2017-06-14T22:51:47.477Z,17.90
2017-06-14T22:54:15.539Z,18.10
2017-06-14T22:56:43.649Z,17.90
2017-06-14T22:59:11.794Z,17.90
2017-06-14T23:01:39.875Z,17.80
2017-06-14T23:04:08.027Z,17.70
2017-06-14T23:06:36.151Z,17.80
2017-06-14T23:09:04.471Z,17.70
2017-06-14T23:11:32.565Z,17.70
2017-06-14T23:14:00.704Z,17.70
2017-06-14T23:16:28.804Z,17.60
2017-06-14T23:18:56.970Z,17.60
2017-06-14T23:21:25.211Z,17.60
2017-06-14T23:23:53.468Z,17.50
2017-06-14T23:26:21.618Z,17.50
2017-06-14T23:28:49.883Z,17.50
2017-06-14T23:31:18.078Z,17.50
2017-06-14T23:33:46.362Z,17.50
2017-06-14T23:36:14.440Z,17.40
2017-06-14T23:38:42.572Z,17.40
2017-06-14T23:41:10.735Z,17.40
2017-06-14T23:43:38.811Z,17.30
2017-06-14T23:46:07.137Z,17.30
2017-06-14T23:48:35.297Z,17.30
2017-06-14T23:51:03.377Z,17.10
2017-06-14T23:53:31.448Z,17.10
2017-06-14T23:55:59.530Z,17.20
2017-06-14T23:58:27.608Z,17.10
